createdAt,value
2018-01-22T00:01:11.100Z,0.00
2018-01-22T00:03:38.663Z,0.00
2018-01-22T00:06:06.560Z,0.00
2018-01-22T00:08:34.158Z,-0.10
2018-01-22T00:11:01.731Z,0.00
2018-01-22T00:13:30.242Z,0.00
2018-01-22T00:15:58.015Z,0.00
2018-01-22T00:18:25.588Z,0.00
2018-01-22T00:20:53.180Z,0.00
2018-01-22T00:23:21.542Z,0.00
2018-01-22T00:25:49.144Z,-0.10
2018-01-22T00:28:16.767Z,0.00
2018-01-22T00:30:44.594Z,0.10
2018-01-22T00:33:12.181Z,0.00
2018-01-22T00:35:39.994Z,0.00
2018-01-22T00:38:07.580Z,0.00
2018-01-22T00:40:35.164Z,0.00
2018-01-22T00:43:02.946Z,0.00
2018-01-22T00:45:30.542Z,0.10
2018-01-22T00:47:58.130Z,0.10
2018-01-22T00:50:25.742Z,0.10
2018-01-22T00:52:54.066Z,0.20
2018-01-22T00:55:22.659Z,0.10
2018-01-22T00:57:50.570Z,0.10
2018-01-22T01:00:18.904Z,0.20
2018-01-22T01:02:46.880Z,0.10
2018-01-22T01:05:14.470Z,0.20
2018-01-22T01:07:42.389Z,0.20
2018-01-22T01:10:09.979Z,0.20
2018-01-22T01:12:38.731Z,0.10
2018-01-22T01:15:06.302Z,0.20
2018-01-22T01:17:34.068Z,0.20
2018-01-22T01:20:02.411Z,0.20
2018-01-22T01:22:30.751Z,0.10
2018-01-22T01:24:58.318Z,0.10
2018-01-22T01:27:25.942Z,0.20
2018-01-22T01:29:53.529Z,0.20
2018-01-22T01:32:21.091Z,0.20
2018-01-22T01:34:48.780Z,0.20
2018-01-22T01:37:16.689Z,0.10
2018-01-22T01:39:44.271Z,0.20
2018-01-22T01:42:11.888Z,0.20
2018-01-22T01:44:39.823Z,0.20
2018-01-22T01:47:07.408Z,0.20
2018-01-22T01:49:35.001Z,0.20
2018-01-22T01:52:02.606Z,0.20
2018-01-22T01:54:30.170Z,0.30
2018-01-22T01:56:59.602Z,0.30
2018-01-22T01:59:27.950Z,0.30
2018-01-22T02:01:55.530Z,0.30
2018-01-22T02:04:23.923Z,0.30
2018-01-22T02:06:51.487Z,0.30
2018-01-22T02:09:19.554Z,0.30
2018-01-22T02:11:47.916Z,0.30
2018-01-22T02:14:15.498Z,0.30
2018-01-22T02:16:43.851Z,0.30
2018-01-22T02:19:11.707Z,0.30
2018-01-22T02:21:39.304Z,0.40
2018-01-22T02:24:07.695Z,0.30
2018-01-22T02:26:35.311Z,0.30
2018-01-22T02:29:02.886Z,0.30
2018-01-22T02:31:30.483Z,0.30
2018-01-22T02:33:59.057Z,0.40
2018-01-22T02:36:27.418Z,0.30
2018-01-22T02:38:55.015Z,0.30
2018-01-22T02:41:22.851Z,0.40
2018-01-22T02:43:51.203Z,0.30
2018-01-22T02:46:18.931Z,0.30
2018-01-22T02:48:46.549Z,0.30
2018-01-22T02:51:14.127Z,0.20
2018-01-22T02:53:42.480Z,0.30
2018-01-22T02:56:10.921Z,0.20
2018-01-22T02:58:38.685Z,0.20
2018-01-22T03:01:06.282Z,0.20
2018-01-22T03:03:36.479Z,0.20
2018-01-22T03:06:04.865Z,0.20
2018-01-22T03:08:32.630Z,0.20
2018-01-22T03:11:00.462Z,0.30
2018-01-22T03:13:28.058Z,0.30
2018-01-22T03:15:55.628Z,0.20
2018-01-22T03:18:23.233Z,0.30
2018-01-22T03:20:51.651Z,0.30
2018-01-22T03:23:19.219Z,0.30
2018-01-22T03:25:47.141Z,0.20
2018-01-22T03:28:16.486Z,0.30
2018-01-22T03:30:44.075Z,0.30
2018-01-22T03:33:11.696Z,0.30
2018-01-22T03:35:39.282Z,0.30
2018-01-22T03:38:06.868Z,0.30
2018-01-22T03:40:35.253Z,0.40
2018-01-22T03:43:02.834Z,0.40
2018-01-22T03:45:30.405Z,0.30
2018-01-22T03:47:58.356Z,0.30
2018-01-22T03:50:26.682Z,0.30
2018-01-22T03:52:54.261Z,0.30
2018-01-22T03:55:21.861Z,0.20
2018-01-22T03:57:50.214Z,0.30
2018-01-22T04:00:17.929Z,0.30
2018-01-22T04:02:45.539Z,0.20
2018-01-22T04:05:13.116Z,0.30
2018-01-22T04:07:41.452Z,0.20
2018-01-22T04:10:09.467Z,0.20
2018-01-22T04:12:37.915Z,0.30
2018-01-22T04:15:05.480Z,0.30
2018-01-22T04:17:33.089Z,0.30
2018-01-22T04:20:01.318Z,0.20
2018-01-22T04:22:29.368Z,0.20
2018-01-22T04:24:56.964Z,0.30
2018-01-22T04:27:24.535Z,0.30
2018-01-22T04:29:52.872Z,0.30
2018-01-22T04:32:21.432Z,0.30
2018-01-22T04:34:48.990Z,0.30
2018-01-22T04:37:18.155Z,0.20
2018-01-22T04:39:45.734Z,0.20
2018-01-22T04:42:13.298Z,0.20
2018-01-22T04:44:40.871Z,0.20
2018-01-22T04:47:08.479Z,0.20
2018-01-22T04:49:36.321Z,0.20
2018-01-22T04:52:03.879Z,0.30
2018-01-22T04:54:32.276Z,0.30
2018-01-22T04:56:59.847Z,0.30
2018-01-22T04:59:27.435Z,0.20
2018-01-22T05:01:55.891Z,0.20
2018-01-22T05:04:23.461Z,0.10
2018-01-22T05:06:51.032Z,0.20
2018-01-22T05:09:18.636Z,0.20
2018-01-22T05:11:46.206Z,0.30
2018-01-22T05:14:13.881Z,0.30
2018-01-22T05:16:41.771Z,0.30
2018-01-22T05:19:09.349Z,0.30
2018-01-22T05:21:36.907Z,0.30
2018-01-22T05:24:05.591Z,0.30
2018-01-22T05:26:35.514Z,0.30
2018-01-22T05:29:03.842Z,0.30
2018-01-22T05:31:31.449Z,0.20
2018-01-22T05:33:59.066Z,0.30
2018-01-22T05:36:26.646Z,0.30
2018-01-22T05:38:54.308Z,0.20
2018-01-22T05:41:21.891Z,0.30
2018-01-22T05:43:50.199Z,0.30
2018-01-22T05:46:18.046Z,0.30
2018-01-22T05:48:46.394Z,0.20
2018-01-22T05:51:14.390Z,0.20
2018-01-22T05:53:42.820Z,0.20
2018-01-22T05:56:10.427Z,0.20
2018-01-22T05:58:38.027Z,0.30
2018-01-22T06:01:05.648Z,0.30
2018-01-22T06:03:34.006Z,0.20
2018-01-22T06:06:01.619Z,0.20
2018-01-22T06:08:30.184Z,0.10
2018-01-22T06:10:58.543Z,0.10
2018-01-22T06:13:26.099Z,0.10
2018-01-22T06:15:53.830Z,0.20
2018-01-22T06:18:21.459Z,0.20
2018-01-22T06:20:49.808Z,0.20
2018-01-22T06:23:17.577Z,0.20
2018-01-22T06:25:45.401Z,0.20
2018-01-22T06:28:14.400Z,0.20
2018-01-22T06:30:41.984Z,0.20
2018-01-22T06:33:09.550Z,0.20
2018-01-22T06:35:37.138Z,0.20
2018-01-22T06:38:06.300Z,0.20
2018-01-22T06:40:34.040Z,0.20
2018-01-22T06:43:01.626Z,0.20
2018-01-22T06:45:29.258Z,0.30
2018-01-22T06:47:56.815Z,0.30
2018-01-22T06:50:24.483Z,0.30
2018-01-22T06:52:53.746Z,0.30
2018-01-22T06:55:21.774Z,0.30
2018-01-22T06:57:49.406Z,0.30
2018-01-22T07:00:17.118Z,0.30
2018-01-22T07:02:44.724Z,0.40
2018-01-22T07:05:12.486Z,0.30
2018-01-22T07:07:40.087Z,0.30
2018-01-22T07:10:07.718Z,0.40
2018-01-22T07:12:35.309Z,0.30
2018-01-22T07:15:03.088Z,0.30
2018-01-22T07:17:31.182Z,0.40
2018-01-22T07:19:59.574Z,0.30
2018-01-22T07:22:28.149Z,0.30
2018-01-22T07:24:55.762Z,0.30
2018-01-22T07:27:23.422Z,0.30
2018-01-22T07:29:51.039Z,0.30
2018-01-22T07:32:19.471Z,0.40
2018-01-22T07:34:47.792Z,0.30
2018-01-22T07:37:15.640Z,0.30
2018-01-22T07:39:43.238Z,0.40
2018-01-22T07:42:11.592Z,0.40
2018-01-22T07:44:40.093Z,0.40
2018-01-22T07:47:08.158Z,0.40
2018-01-22T07:49:36.941Z,0.50
2018-01-22T07:52:05.625Z,0.50
2018-01-22T07:54:33.366Z,0.50
2018-01-22T07:57:00.986Z,0.50
2018-01-22T07:59:28.765Z,0.50
2018-01-22T08:01:56.536Z,0.60
2018-01-22T08:04:24.121Z,0.50
2018-01-22T08:06:52.079Z,0.50
2018-01-22T08:09:19.746Z,0.50
2018-01-22T08:11:47.387Z,0.60
2018-01-22T08:14:15.096Z,0.60
2018-01-22T08:16:43.494Z,0.60
2018-01-22T08:19:11.950Z,0.70
2018-01-22T08:21:39.600Z,0.70
2018-01-22T08:24:07.177Z,0.70
2018-01-22T08:26:34.785Z,0.70
2018-01-22T08:29:02.474Z,0.70
2018-01-22T08:31:30.174Z,0.60
2018-01-22T08:33:57.759Z,0.60
2018-01-22T08:36:26.785Z,0.70
2018-01-22T08:38:54.564Z,0.70
2018-01-22T08:41:23.023Z,0.80
2018-01-22T08:43:51.945Z,0.80
2018-01-22T08:46:19.763Z,0.80
2018-01-22T08:48:47.488Z,0.80
2018-01-22T08:51:15.234Z,0.80
2018-01-22T08:53:42.858Z,0.90
2018-01-22T08:56:10.779Z,0.80
2018-01-22T08:58:38.390Z,0.90
2018-01-22T09:01:06.039Z,0.90
2018-01-22T09:03:33.753Z,0.90
2018-01-22T09:06:01.454Z,0.90
2018-01-22T09:08:29.787Z,1.00
2018-01-22T09:10:57.696Z,1.00
2018-01-22T09:13:25.989Z,0.90
2018-01-22T09:15:53.717Z,0.90
2018-01-22T09:18:21.363Z,1.00
2018-01-22T09:20:49.109Z,1.00
2018-01-22T09:23:16.769Z,1.00
2018-01-22T09:25:44.420Z,1.00
2018-01-22T09:28:12.813Z,1.00
2018-01-22T09:30:40.381Z,1.00
2018-01-22T09:33:08.173Z,1.00
2018-01-22T09:35:35.845Z,1.00
2018-01-22T09:38:04.622Z,1.00
2018-01-22T09:40:32.212Z,1.00
2018-01-22T09:43:00.698Z,1.00
2018-01-22T09:45:28.336Z,1.00
2018-01-22T09:47:56.146Z,1.10
2018-01-22T09:50:23.856Z,1.10
2018-01-22T09:52:51.545Z,1.10
2018-01-22T09:55:19.883Z,1.20
2018-01-22T09:57:47.711Z,1.20
2018-01-22T10:00:16.159Z,1.20
2018-01-22T10:02:43.905Z,1.20
2018-01-22T10:05:13.529Z,1.10
2018-01-22T10:07:41.623Z,1.10
